Alpicat, Spain
Current Conditions -  °F | °C
As of 9:00 AM on Tuesday 27 Jan 2015 (Local Time) from LERS Reporting Station
Few Clouds Few Clouds  
Wind Chill: 45°   Ceiling: Unl
Heat Index: 45°   Visibility: 6mi
Dew Point: 37°   Wind: 3mph
Humidity: 76%   Direction: 290°WNW
Pressure: 30.21"   Gusts: NA
Location:  41.67°N, 0.56°E
Report Text: LERS 270800Z 29003KT 260V350 9999 FEW025 07/03 Q1023
Loading
Personal Weather Stations






























Interactive Weather Map New forecast layout! Learn more

10-Day Weather Forecast

Advertisements
Track Severe Weather on mobile